createdAt,value
2023-04-03T00:01:34.618Z,1.50
2023-04-03T00:04:02.616Z,1.70
2023-04-03T00:06:30.603Z,1.70
2023-04-03T00:08:58.250Z,1.70
2023-04-03T00:11:26.668Z,1.80
2023-04-03T00:13:54.581Z,1.80
2023-04-03T00:16:22.410Z,1.90
2023-04-03T00:18:50.343Z,2.10
2023-04-03T00:21:18.285Z,2.30
2023-04-03T00:23:45.951Z,2.40
2023-04-03T00:26:13.986Z,2.60
2023-04-03T00:28:42.268Z,2.60
2023-04-03T00:31:10.710Z,2.60
2023-04-03T00:33:38.580Z,2.90
2023-04-03T00:36:12.247Z,2.90
2023-04-03T00:38:40.756Z,3.00
2023-04-03T00:41:09.828Z,2.90
2023-04-03T00:43:37.789Z,2.80
2023-04-03T00:46:06.035Z,2.60
2023-04-03T00:48:46.070Z,2.60
2023-04-03T00:51:26.763Z,2.70
2023-04-03T00:54:04.138Z,2.90
2023-04-03T00:56:33.919Z,3.00
2023-04-03T00:59:18.199Z,3.20
2023-04-03T01:01:46.434Z,3.20
2023-04-03T01:04:44.614Z,3.20
2023-04-03T01:07:35.044Z,3.30
2023-04-03T01:10:15.624Z,3.30
2023-04-03T01:12:48.400Z,3.40
2023-04-03T01:15:26.231Z,3.40
2023-04-03T01:17:59.001Z,3.50
2023-04-03T01:20:56.590Z,3.30
2023-04-03T01:23:45.386Z,3.40
2023-04-03T01:26:14.495Z,3.40
2023-04-03T01:28:42.253Z,3.40
2023-04-03T01:31:50.044Z,3.40
2023-04-03T01:34:18.610Z,3.40
2023-04-03T01:36:46.554Z,3.40
2023-04-03T01:39:15.489Z,3.40
2023-04-03T01:41:43.628Z,3.50
2023-04-03T01:44:20.182Z,3.40
2023-04-03T01:46:47.916Z,3.40
2023-04-03T01:49:15.814Z,3.30
2023-04-03T01:51:43.699Z,3.20
2023-04-03T01:54:11.771Z,3.20
2023-04-03T01:56:40.447Z,3.30
2023-04-03T01:59:09.641Z,3.20
2023-04-03T02:01:38.004Z,3.20
2023-04-03T02:04:06.915Z,3.20
2023-04-03T02:06:34.899Z,3.30
2023-04-03T02:09:02.803Z,3.30
2023-04-03T02:11:32.591Z,3.20
2023-04-03T02:14:00.591Z,3.20
2023-04-03T02:16:31.492Z,3.20
2023-04-03T02:19:03.387Z,3.00
2023-04-03T02:21:35.702Z,3.00
2023-04-03T02:24:04.304Z,3.00
2023-04-03T02:26:31.998Z,3.10
2023-04-03T02:28:59.890Z,3.10
2023-04-03T02:31:27.809Z,2.90
2023-04-03T02:33:55.872Z,2.90
2023-04-03T02:36:24.250Z,2.80
2023-04-03T02:38:56.895Z,2.70
2023-04-03T02:41:26.580Z,2.70
2023-04-03T02:43:55.040Z,2.70
2023-04-03T02:46:23.594Z,2.70
2023-04-03T02:48:51.606Z,2.80
2023-04-03T02:51:21.385Z,2.80
2023-04-03T02:53:49.122Z,2.90
2023-04-03T02:56:22.444Z,2.80
2023-04-03T02:58:51.737Z,2.80
2023-04-03T03:01:21.290Z,2.90
2023-04-03T03:03:49.532Z,2.80
2023-04-03T03:06:19.161Z,2.70
2023-04-03T03:08:47.517Z,2.70
2023-04-03T03:11:16.898Z,2.60
2023-04-03T03:13:45.048Z,2.50
2023-04-03T03:16:13.607Z,2.40
2023-04-03T03:18:41.974Z,2.20
2023-04-03T03:21:12.383Z,2.40
2023-04-03T03:23:41.286Z,2.40
2023-04-03T03:26:13.135Z,2.30
2023-04-03T03:28:41.880Z,2.20
2023-04-03T03:31:11.888Z,2.10
2023-04-03T03:33:42.221Z,2.00
2023-04-03T03:36:10.784Z,2.00
2023-04-03T03:38:39.413Z,2.00
2023-04-03T03:41:08.040Z,2.10
2023-04-03T03:43:36.981Z,2.20
2023-04-03T03:46:06.910Z,2.10
2023-04-03T03:48:34.995Z,1.90
2023-04-03T03:51:03.013Z,1.90
2023-04-03T03:53:35.095Z,1.90
2023-04-03T03:56:08.227Z,2.00
2023-04-03T03:58:39.376Z,2.00
2023-04-03T04:01:10.522Z,2.00
2023-04-03T04:03:44.329Z,1.90
2023-04-03T04:06:15.816Z,1.90
2023-04-03T04:08:45.031Z,1.90
2023-04-03T04:11:14.540Z,1.80
2023-04-03T04:13:43.676Z,1.80
2023-04-03T04:16:13.855Z,1.90
2023-04-03T04:18:42.876Z,1.80
2023-04-03T04:21:10.679Z,1.90
2023-04-03T04:23:42.913Z,1.80
2023-04-03T04:26:11.813Z,1.70
2023-04-03T04:28:43.277Z,1.60
2023-04-03T04:31:14.517Z,1.50
2023-04-03T04:33:42.793Z,1.40
2023-04-03T04:36:15.977Z,1.40
2023-04-03T04:38:46.903Z,1.50
2023-04-03T04:41:15.911Z,1.40
2023-04-03T04:43:44.478Z,1.20
2023-04-03T04:46:13.357Z,1.20
2023-04-03T04:48:46.779Z,1.20
2023-04-03T04:51:16.468Z,1.20
2023-04-03T04:53:44.826Z,1.20
2023-04-03T04:56:15.027Z,1.10
2023-04-03T04:58:43.917Z,1.20
2023-04-03T05:01:12.949Z,1.00
2023-04-03T05:03:52.682Z,0.80
2023-04-03T05:06:20.942Z,0.70
2023-04-03T05:08:49.088Z,0.90
2023-04-03T05:11:17.308Z,1.00
2023-04-03T05:13:46.903Z,0.90
2023-04-03T05:16:14.870Z,0.90
2023-04-03T05:18:43.114Z,0.90
2023-04-03T05:21:19.460Z,1.00
2023-04-03T05:23:49.377Z,1.00
2023-04-03T05:26:17.237Z,0.90
2023-04-03T05:28:47.826Z,1.00
2023-04-03T05:31:17.084Z,1.00
2023-04-03T05:33:47.247Z,1.00
2023-04-03T05:36:18.798Z,1.00
2023-04-03T05:38:51.584Z,1.00
2023-04-03T05:41:21.985Z,1.00
2023-04-03T05:43:51.117Z,1.10
2023-04-03T05:46:22.480Z,1.10
2023-04-03T05:48:54.758Z,1.00
2023-04-03T05:51:37.366Z,1.00
2023-04-03T05:54:27.752Z,1.10
2023-04-03T05:57:17.405Z,1.20
2023-04-03T05:59:47.851Z,1.30
2023-04-03T06:02:23.954Z,1.30
2023-04-03T06:04:53.610Z,1.40
2023-04-03T06:07:29.162Z,1.40
2023-04-03T06:09:59.193Z,1.50
2023-04-03T06:12:29.970Z,1.60
2023-04-03T06:14:59.147Z,1.60
2023-04-03T06:17:28.180Z,1.60
2023-04-03T06:19:56.980Z,1.70
2023-04-03T06:22:26.705Z,1.80
2023-04-03T06:24:54.720Z,1.80
2023-04-03T06:27:22.505Z,2.00
2023-04-03T06:29:51.087Z,2.10
2023-04-03T06:32:18.945Z,2.10
2023-04-03T06:34:47.506Z,2.20
2023-04-03T06:37:29.950Z,2.20
2023-04-03T06:39:58.123Z,2.30
2023-04-03T06:42:26.094Z,3.00
2023-04-03T06:45:01.506Z,4.00
2023-04-03T06:47:29.381Z,4.90
2023-04-03T06:49:57.451Z,5.70
2023-04-03T06:52:25.280Z,6.20
2023-04-03T06:54:58.120Z,6.40
2023-04-03T06:57:26.207Z,6.90
2023-04-03T06:59:54.275Z,7.10
2023-04-03T07:02:22.104Z,6.50
2023-04-03T07:04:49.957Z,6.40
2023-04-03T07:07:18.817Z,6.10
2023-04-03T07:09:47.854Z,6.00
2023-04-03T07:12:17.151Z,6.30
2023-04-03T07:14:45.022Z,6.70
2023-04-03T07:17:12.745Z,7.00
2023-04-03T07:19:40.438Z,6.90
2023-04-03T07:22:09.275Z,7.50
2023-04-03T07:24:37.397Z,7.90
2023-04-03T07:27:06.487Z,7.90
2023-04-03T07:29:34.296Z,7.90
2023-04-03T07:32:02.892Z,8.00
2023-04-03T07:34:31.775Z,7.90
2023-04-03T07:37:00.208Z,7.50
2023-04-03T07:39:29.214Z,7.70
2023-04-03T07:41:57.311Z,7.70
2023-04-03T07:44:26.601Z,7.90
2023-04-03T07:46:54.526Z,8.10
2023-04-03T07:49:25.271Z,8.20
2023-04-03T07:51:54.145Z,8.10
2023-04-03T07:54:21.761Z,7.40
2023-04-03T07:56:49.576Z,7.70
2023-04-03T07:59:17.477Z,7.40
2023-04-03T08:01:45.224Z,7.00
2023-04-03T08:04:13.182Z,7.60
2023-04-03T08:06:46.413Z,8.00
2023-04-03T08:09:17.336Z,8.30
2023-04-03T08:11:46.668Z,8.30
2023-04-03T08:14:19.608Z,8.50
2023-04-03T08:16:49.948Z,8.30
2023-04-03T08:19:26.243Z,8.20
2023-04-03T08:21:57.888Z,8.30
2023-04-03T08:24:26.564Z,8.90
2023-04-03T08:26:54.190Z,8.50
2023-04-03T08:29:22.575Z,8.20
2023-04-03T08:31:51.565Z,7.70
2023-04-03T08:34:21.223Z,7.80
2023-04-03T08:36:49.540Z,7.80
2023-04-03T08:39:18.701Z,8.10
2023-04-03T08:41:49.064Z,8.20
2023-04-03T08:44:41.439Z,8.30
2023-04-03T08:48:13.498Z,8.60
2023-04-03T08:50:52.985Z,8.70
2023-04-03T08:53:36.549Z,8.50
2023-04-03T08:56:11.731Z,8.20
2023-04-03T08:59:01.811Z,8.30
2023-04-03T09:01:42.559Z,8.30
2023-04-03T09:04:18.343Z,8.70
2023-04-03T09:07:01.216Z,9.30
2023-04-03T09:09:51.010Z,9.00
2023-04-03T09:12:51.596Z,8.50
2023-04-03T09:15:37.729Z,8.30
2023-04-03T09:18:34.831Z,9.10
2023-04-03T09:21:44.131Z,8.80
2023-04-03T09:24:18.578Z,8.60
2023-04-03T09:27:13.427Z,9.30
2023-04-03T09:29:47.233Z,9.10
2023-04-03T09:32:38.026Z,8.90
2023-04-03T09:35:47.467Z,9.00
2023-04-03T09:38:23.764Z,8.30
2023-04-03T09:41:20.047Z,7.90
2023-04-03T09:43:56.954Z,7.90
2023-04-03T09:46:35.938Z,7.30
2023-04-03T09:49:09.774Z,7.40
2023-04-03T09:51:39.079Z,7.40
2023-04-03T09:54:41.183Z,7.40
2023-04-03T09:57:15.375Z,7.10
2023-04-03T10:00:06.007Z,7.00
2023-04-03T10:02:43.968Z,7.10
2023-04-03T10:05:43.973Z,7.00
2023-04-03T10:08:36.171Z,6.90
2023-04-03T10:11:21.865Z,7.00
2023-04-03T10:14:06.303Z,6.90
2023-04-03T10:16:58.607Z,7.10
2023-04-03T10:19:53.029Z,6.90
2023-04-03T10:23:21.905Z,7.00
2023-04-03T10:26:49.011Z,7.20
2023-04-03T10:29:56.805Z,7.20
2023-04-03T10:33:26.631Z,7.40
2023-04-03T10:37:20.009Z,7.50
2023-04-03T10:40:41.705Z,7.30
2023-04-03T10:43:42.218Z,7.20
2023-04-03T10:46:35.901Z,7.10
2023-04-03T10:49:44.637Z,7.10
2023-04-03T10:53:29.702Z,7.10
2023-04-03T10:56:43.572Z,7.40
2023-04-03T10:59:39.958Z,7.00
2023-04-03T11:02:47.237Z,7.10
2023-04-03T11:05:54.948Z,7.00
2023-04-03T11:08:57.973Z,7.20
2023-04-03T11:11:37.658Z,7.40
2023-04-03T11:14:27.758Z,7.50
2023-04-03T11:17:20.726Z,7.60
2023-04-03T11:20:36.518Z,7.70
2023-04-03T11:23:45.800Z,7.80
2023-04-03T11:26:29.745Z,7.70
2023-04-03T11:29:32.179Z,7.80
2023-04-03T11:32:49.436Z,7.50
2023-04-03T11:35:21.311Z,7.50
2023-04-03T11:37:56.844Z,7.60
2023-04-03T11:40:38.962Z,7.80
2023-04-03T11:43:30.883Z,7.70
2023-04-03T11:46:04.496Z,7.90
2023-04-03T11:48:33.240Z,7.90
2023-04-03T11:51:17.366Z,7.80
2023-04-03T11:53:46.038Z,7.80
2023-04-03T11:56:28.521Z,7.80
2023-04-03T11:59:25.245Z,7.80
2023-04-03T12:01:59.916Z,7.80
2023-04-03T12:04:31.573Z,7.70
2023-04-03T12:07:26.042Z,7.80
2023-04-03T12:10:01.757Z,8.00
2023-04-03T12:13:00.421Z,8.20
2023-04-03T12:15:55.721Z,8.20
2023-04-03T12:18:51.084Z,8.20
2023-04-03T12:21:37.451Z,8.10
2023-04-03T12:24:11.809Z,8.20
2023-04-03T12:27:27.222Z,8.00
2023-04-03T12:30:27.599Z,8.20
2023-04-03T12:34:24.412Z,8.30
2023-04-03T12:38:04.254Z,8.40
2023-04-03T12:41:19.085Z,8.20
2023-04-03T12:44:15.162Z,8.20
2023-04-03T12:46:52.003Z,8.30
2023-04-03T12:49:41.223Z,8.40
2023-04-03T12:53:05.196Z,8.30
2023-04-03T12:55:33.296Z,8.30
2023-04-03T12:58:29.775Z,8.30
2023-04-03T13:01:16.125Z,8.30
2023-04-03T13:03:56.508Z,8.40
2023-04-03T13:06:40.250Z,8.50
2023-04-03T13:09:27.585Z,8.50
2023-04-03T13:12:12.427Z,8.30
2023-04-03T13:14:41.980Z,8.60
2023-04-03T13:17:17.733Z,8.70
2023-04-03T13:19:47.682Z,8.70
2023-04-03T13:22:46.790Z,8.40
2023-04-03T13:25:22.582Z,8.30
2023-04-03T13:27:53.819Z,8.60
2023-04-03T13:30:39.202Z,8.70
2023-04-03T13:33:33.803Z,8.80
2023-04-03T13:36:25.724Z,8.70
2023-04-03T13:39:14.564Z,8.70
2023-04-03T13:41:51.200Z,8.70
2023-04-03T13:44:34.435Z,8.80
2023-04-03T13:47:25.611Z,8.90
2023-04-03T13:50:27.421Z,8.90
2023-04-03T13:53:12.309Z,8.80
2023-04-03T13:56:09.832Z,8.70
2023-04-03T13:58:39.977Z,8.80
2023-04-03T14:01:24.745Z,8.90
2023-04-03T14:04:20.501Z,8.80
2023-04-03T14:06:50.798Z,8.60
2023-04-03T14:09:22.902Z,8.60
2023-04-03T14:11:59.099Z,8.60
2023-04-03T14:14:35.595Z,8.50
2023-04-03T14:17:24.587Z,8.50
2023-04-03T14:19:58.003Z,8.70
2023-04-03T14:22:37.757Z,8.60
2023-04-03T14:25:07.304Z,8.60
2023-04-03T14:27:47.769Z,8.40
2023-04-03T14:30:33.090Z,8.50
2023-04-03T14:33:02.106Z,8.50
2023-04-03T14:35:30.838Z,8.60
2023-04-03T14:37:58.837Z,8.70
2023-04-03T14:40:29.046Z,8.80
2023-04-03T14:42:58.528Z,8.60
2023-04-03T14:45:26.280Z,8.70
2023-04-03T14:47:57.756Z,8.50
2023-04-03T14:50:29.246Z,8.60
2023-04-03T14:53:00.621Z,8.70
2023-04-03T14:55:29.564Z,8.60
2023-04-03T14:57:57.839Z,8.50
2023-04-03T15:00:26.155Z,8.60
2023-04-03T15:02:54.570Z,8.60
2023-04-03T15:05:24.895Z,8.50
2023-04-03T15:08:00.960Z,8.50
2023-04-03T15:10:32.780Z,8.50
2023-04-03T15:13:01.639Z,8.50
2023-04-03T15:15:39.983Z,8.60
2023-04-03T15:18:15.121Z,8.50
2023-04-03T15:20:44.277Z,8.50
2023-04-03T15:23:16.896Z,8.60
2023-04-03T15:25:51.281Z,8.70
2023-04-03T15:28:29.858Z,8.60
2023-04-03T15:30:58.876Z,8.50
2023-04-03T15:33:29.132Z,8.40
2023-04-03T15:36:06.713Z,8.30
2023-04-03T15:38:36.484Z,8.50
2023-04-03T15:41:04.748Z,8.70
2023-04-03T15:43:35.011Z,8.70
2023-04-03T15:46:04.098Z,8.70
2023-04-03T15:48:32.922Z,8.60
2023-04-03T15:51:02.253Z,8.50
2023-04-03T15:53:30.249Z,8.60
2023-04-03T15:55:58.045Z,8.40
2023-04-03T15:58:26.604Z,8.40
2023-04-03T16:00:54.947Z,8.40
2023-04-03T16:03:25.632Z,8.40
2023-04-03T16:05:54.337Z,8.30
2023-04-03T16:08:22.279Z,8.40
2023-04-03T16:10:50.784Z,8.50
2023-04-03T16:13:18.760Z,8.60
2023-04-03T16:15:46.876Z,8.50
2023-04-03T16:18:15.068Z,8.50
2023-04-03T16:20:44.806Z,8.30
2023-04-03T16:23:13.861Z,8.30
2023-04-03T16:25:46.863Z,8.30
2023-04-03T16:28:16.377Z,8.20
2023-04-03T16:30:47.719Z,8.20
2023-04-03T16:33:16.063Z,8.10
2023-04-03T16:35:44.918Z,8.00
2023-04-03T16:38:12.844Z,8.00
2023-04-03T16:40:40.809Z,8.00
2023-04-03T16:43:08.981Z,8.10
2023-04-03T16:45:36.978Z,7.90
2023-04-03T16:48:06.009Z,7.80
2023-04-03T16:50:34.176Z,7.80
2023-04-03T16:53:04.010Z,7.80
2023-04-03T16:55:32.618Z,7.80
2023-04-03T16:58:00.476Z,7.80
2023-04-03T17:00:32.883Z,7.90
2023-04-03T17:03:01.230Z,7.80
2023-04-03T17:05:28.931Z,7.80
2023-04-03T17:07:56.966Z,7.70
2023-04-03T17:10:26.482Z,7.70
2023-04-03T17:12:54.374Z,7.60
2023-04-03T17:15:22.456Z,7.60
2023-04-03T17:17:53.212Z,7.50
2023-04-03T17:20:21.644Z,7.50
2023-04-03T17:22:50.067Z,7.50
2023-04-03T17:25:18.397Z,7.50
2023-04-03T17:27:46.182Z,7.50
2023-04-03T17:30:14.445Z,7.40
2023-04-03T17:32:42.247Z,7.40
2023-04-03T17:35:11.790Z,7.30
2023-04-03T17:37:40.057Z,7.30
2023-04-03T17:40:09.512Z,7.30
2023-04-03T17:42:37.336Z,7.30
2023-04-03T17:45:06.346Z,7.20
2023-04-03T17:47:34.397Z,7.10
2023-04-03T17:50:12.968Z,7.10
2023-04-03T17:52:44.532Z,7.10
2023-04-03T17:55:23.173Z,7.10
2023-04-03T17:57:57.550Z,7.00
2023-04-03T18:00:33.731Z,7.00
2023-04-03T18:03:06.495Z,6.80
2023-04-03T18:05:42.356Z,6.80
2023-04-03T18:08:12.897Z,6.80
2023-04-03T18:10:44.515Z,6.70
2023-04-03T18:13:16.094Z,6.60
2023-04-03T18:15:46.044Z,6.70
2023-04-03T18:18:14.986Z,6.60
2023-04-03T18:20:43.126Z,6.50
2023-04-03T18:23:11.141Z,6.40
2023-04-03T18:25:39.929Z,6.30
2023-04-03T18:28:08.452Z,6.00
2023-04-03T18:30:36.851Z,6.00
2023-04-03T18:33:04.686Z,6.10
2023-04-03T18:35:32.619Z,6.20
2023-04-03T18:38:00.605Z,6.00
2023-04-03T18:40:28.428Z,6.00
2023-04-03T18:42:56.218Z,5.90
2023-04-03T18:45:25.962Z,5.60
2023-04-03T18:47:56.294Z,5.70
2023-04-03T18:50:24.449Z,5.70
2023-04-03T18:52:54.452Z,5.60
2023-04-03T18:55:22.842Z,5.60
2023-04-03T18:57:51.051Z,5.70
2023-04-03T19:00:19.934Z,5.70
2023-04-03T19:02:49.363Z,5.60
2023-04-03T19:05:18.104Z,5.60
2023-04-03T19:07:47.228Z,5.50
2023-04-03T19:10:18.408Z,5.40
2023-04-03T19:12:52.037Z,5.30
2023-04-03T19:15:25.769Z,5.30
2023-04-03T19:17:54.163Z,5.40
2023-04-03T19:20:22.242Z,5.40
2023-04-03T19:22:50.237Z,5.40
2023-04-03T19:25:18.361Z,5.40
2023-04-03T19:27:46.348Z,5.10
2023-04-03T19:30:15.475Z,5.10
2023-04-03T19:32:43.332Z,5.20
2023-04-03T19:35:12.034Z,5.20
2023-04-03T19:37:40.171Z,5.20
2023-04-03T19:40:10.216Z,5.10
2023-04-03T19:42:40.393Z,5.10
2023-04-03T19:45:12.255Z,5.10
2023-04-03T19:47:40.223Z,5.10
2023-04-03T19:50:08.889Z,4.90
2023-04-03T19:52:36.821Z,4.80
2023-04-03T19:55:05.477Z,4.70
2023-04-03T19:57:33.354Z,4.60
2023-04-03T20:00:01.313Z,4.60
2023-04-03T20:02:29.211Z,4.70
2023-04-03T20:04:57.058Z,4.70
2023-04-03T20:07:25.419Z,4.60
2023-04-03T20:09:53.376Z,4.50
2023-04-03T20:12:21.088Z,4.40
2023-04-03T20:14:49.546Z,4.50
2023-04-03T20:17:17.822Z,4.40
2023-04-03T20:19:46.043Z,4.40
2023-04-03T20:22:13.809Z,4.40
2023-04-03T20:24:42.842Z,4.50
2023-04-03T20:27:10.643Z,4.40
2023-04-03T20:29:39.642Z,4.10
2023-04-03T20:32:07.635Z,4.00
2023-04-03T20:34:35.421Z,3.80
2023-04-03T20:37:03.988Z,3.60
2023-04-03T20:39:32.496Z,3.60
2023-04-03T20:42:00.434Z,3.70
2023-04-03T20:44:28.131Z,3.80
2023-04-03T20:46:56.342Z,4.00
2023-04-03T20:49:25.215Z,4.00
2023-04-03T20:51:53.616Z,4.00
2023-04-03T20:54:22.060Z,4.00
2023-04-03T20:56:50.497Z,4.00
2023-04-03T20:59:19.083Z,4.00
2023-04-03T21:01:47.738Z,3.80
2023-04-03T21:04:36.848Z,3.60
2023-04-03T21:08:38.420Z,3.40
2023-04-03T21:12:40.238Z,3.20
2023-04-03T21:16:00.167Z,3.10
2023-04-03T21:19:06.886Z,3.30
2023-04-03T21:21:37.319Z,3.40
2023-04-03T21:24:11.090Z,3.40
2023-04-03T21:26:41.854Z,3.20
2023-04-03T21:29:11.441Z,3.10
2023-04-03T21:32:01.846Z,2.90
2023-04-03T21:34:33.390Z,2.70
2023-04-03T21:37:08.885Z,2.60
2023-04-03T21:39:36.788Z,2.80
2023-04-03T21:42:04.686Z,2.80
2023-04-03T21:44:32.327Z,3.00
2023-04-03T21:47:00.010Z,3.10
2023-04-03T21:49:29.790Z,3.00
2023-04-03T21:51:57.601Z,2.80
2023-04-03T21:54:25.832Z,2.70
2023-04-03T21:56:53.468Z,2.60
2023-04-03T21:59:21.359Z,2.60
2023-04-03T22:01:49.451Z,2.70
2023-04-03T22:04:17.950Z,2.70
2023-04-03T22:06:45.967Z,2.80
2023-04-03T22:09:14.014Z,2.70
2023-04-03T22:11:44.860Z,2.80
2023-04-03T22:14:13.156Z,2.90
2023-04-03T22:16:41.435Z,2.90
2023-04-03T22:19:09.390Z,3.00
2023-04-03T22:21:37.195Z,3.10
2023-04-03T22:24:05.516Z,3.30
2023-04-03T22:26:34.556Z,3.20
2023-04-03T22:29:02.335Z,3.20
2023-04-03T22:31:30.120Z,3.10
2023-04-03T22:33:57.893Z,3.10
2023-04-03T22:36:25.593Z,2.90
2023-04-03T22:38:53.307Z,2.70
2023-04-03T22:41:21.363Z,2.50
2023-04-03T22:43:49.359Z,2.30
2023-04-03T22:46:17.248Z,2.40
2023-04-03T22:48:48.293Z,2.40
2023-04-03T22:51:16.123Z,2.30
2023-04-03T22:53:43.962Z,2.20
2023-04-03T22:56:11.703Z,2.20
2023-04-03T22:58:40.206Z,2.20
2023-04-03T23:01:15.109Z,2.30
2023-04-03T23:03:43.901Z,2.40
2023-04-03T23:06:13.554Z,2.50
2023-04-03T23:08:42.522Z,2.50
2023-04-03T23:11:10.643Z,2.40
2023-04-03T23:13:38.718Z,2.20
2023-04-03T23:16:08.071Z,2.10
2023-04-03T23:18:40.037Z,1.90
2023-04-03T23:21:08.573Z,1.80
2023-04-03T23:23:36.512Z,1.80
2023-04-03T23:26:04.974Z,1.60
2023-04-03T23:28:32.675Z,1.60
2023-04-03T23:31:07.061Z,1.50
2023-04-03T23:33:36.729Z,1.50
2023-04-03T23:36:10.000Z,1.50
2023-04-03T23:38:38.230Z,1.60
2023-04-03T23:41:06.756Z,1.50
2023-04-03T23:43:36.301Z,1.50
2023-04-03T23:46:04.185Z,1.50
2023-04-03T23:48:32.118Z,1.40
2023-04-03T23:50:59.821Z,1.40
2023-04-03T23:53:28.387Z,1.40
2023-04-03T23:55:56.125Z,1.30
2023-04-03T23:58:24.127Z,1.30
